sensor_id;sensor_type;location;lat;lon;timestamp;pressure;altitude;pressure_sealevel;temperature;humidity
46382;BME280;66809;52.974;-2.514;2023-04-22T00:01:46;1001.9295672570854;;;7.32957800558862;37.30144703100916
46382;BME280;66809;52.974;-2.514;2023-04-22T00:03:47;1001.9026140260426;;;7.2878764080106215;37.32834280811353
46382;BME280;66809;52.974;-2.514;2023-04-22T00:05:46;1001.874357319723;;;7.2402786491550755;37.35418142036017
46382;BME280;66809;52.974;-2.514;2023-04-22T00:07:46;1001.8456161248263;;;7.193672303594866;37.384309967491966
46382;BME280;66809;52.974;-2.514;2023-04-22T00:09:46;1001.8179257168939;;;7.148527885005465;37.41267241008783
46382;BME280;66809;52.974;-2.514;2023-04-22T00:11:47;1001.7905585063342;;;7.1045429128144235;37.43322837376608
46382;BME280;66809;52.974;-2.514;2023-04-22T00:13:46;1001.7629985368474;;;7.055566210671945;37.45437112028186
46382;BME280;66809;52.974;-2.514;2023-04-22T00:15:47;1001.7356733190819;;;7.0089588080224985;37.47540832694623
46382;BME280;66809;52.974;-2.514;2023-04-22T00:17:46;1001.7088842825441;;;6.970619845180243;37.49722360620925
46382;BME280;66809;52.974;-2.514;2023-04-22T00:19:46;1001.6830102797103;;;6.92570313926547;37.51414866929172
46382;BME280;66809;52.974;-2.514;2023-04-22T00:21:47;1001.6583058303055;;;6.899343249106112;37.52022758178119
46382;BME280;66809;52.974;-2.514;2023-04-22T00:23:46;1001.633692789595;;;6.870422737725394;37.5282389485282
46382;BME280;66809;52.974;-2.514;2023-04-22T00:25:47;1001.6106937332404;;;6.850229791881544;37.53584898946803
46382;BME280;66809;52.974;-2.514;2023-04-22T00:27:46;1001.5887973980736;;;6.840640986698256;37.51928838131683
46382;BME280;66809;52.974;-2.514;2023-04-22T00:29:46;1001.5680465689169;;;6.824499641421487;37.49122328037761
46382;BME280;66809;52.974;-2.514;2023-04-22T00:31:47;1001.5473017105901;;;6.80115881386774;37.4597357478299
46382;BME280;66809;52.974;-2.514;2023-04-22T00:33:46;1001.5284848354307;;;6.794282751724927;37.42794597834036
46382;BME280;66809;52.974;-2.514;2023-04-22T00:35:47;1001.509922092175;;;6.776955708749347;37.39771173022146
46382;BME280;66809;52.974;-2.514;2023-04-22T00:37:46;1001.4911928407511;;;6.745121529414003;37.366995428871356
46382;BME280;66809;52.974;-2.514;2023-04-22T00:39:46;1001.4731345310117;;;6.730819138276572;37.34493739325448
46382;BME280;66809;52.974;-2.514;2023-04-22T00:41:47;1001.4556920822381;;;6.707681900733649;37.31256110047078
46382;BME280;66809;52.974;-2.514;2023-04-22T00:43:46;1001.4384457599979;;;6.676663862440457;37.28830082722142
46382;BME280;66809;52.974;-2.514;2023-04-22T00:45:48;1001.4221165220448;;;6.633168191874121;37.28227109525312
46382;BME280;66809;52.974;-2.514;2023-04-22T00:47:47;1001.4056832993915;;;6.583900586869193;37.276852603452376
46382;BME280;66809;52.974;-2.514;2023-04-22T00:49:47;1001.3892578719655;;;6.546473837384681;37.26530667378024
46382;BME280;66809;52.974;-2.514;2023-04-22T00:51:46;1001.3715963748454;;;6.5189940053336874;37.25103936789828
46382;BME280;66809;52.974;-2.514;2023-04-22T00:53:47;1001.3532402292979;;;6.488331818451919;37.240647240691594
46382;BME280;66809;52.974;-2.514;2023-04-22T00:55:46;1001.3349228307411;;;6.459212580832837;37.23314300814138
46382;BME280;66809;52.974;-2.514;2023-04-22T00:57:48;1001.3169891242097;;;6.431983746784089;37.236999779861165
46382;BME280;66809;52.974;-2.514;2023-04-22T00:59:47;1001.2992173821989;;;6.403118433825845;37.240358196094306
46382;BME280;66809;52.974;-2.514;2023-04-22T01:01:46;1001.2824759516391;;;6.383961187885642;37.23272521043252
46382;BME280;66809;52.974;-2.514;2023-04-22T01:03:47;1001.2676188962713;;;6.353501378920569;37.221693977780326
46382;BME280;66809;52.974;-2.514;2023-04-22T01:05:47;1001.2529306356178;;;6.328736053348329;37.20726373731246
46382;BME280;66809;52.974;-2.514;2023-04-22T01:07:46;1001.2376362810081;;;6.309345950841842;37.18807016717654
46382;BME280;66809;52.974;-2.514;2023-04-22T01:09:46;1001.2213002103258;;;6.280633682428546;37.16528093703691
46382;BME280;66809;52.974;-2.514;2023-04-22T01:11:47;1001.204109302488;;;6.25800054248027;37.14338480829831
46382;BME280;66809;52.974;-2.514;2023-04-22T01:13:46;1001.1888742973061;;;6.238670414323595;37.13354672374453
46382;BME280;66809;52.974;-2.514;2023-04-22T01:15:47;1001.174337834111;;;6.211200908140069;37.12450096986499
46382;BME280;66809;52.974;-2.514;2023-04-22T01:17:47;1001.1608406734566;;;6.176504818948004;37.11391487692659
46382;BME280;66809;52.974;-2.514;2023-04-22T01:19:47;1001.1470408475219;;;6.146335388659791;37.102365610818495
46382;BME280;66809;52.974;-2.514;2023-04-22T01:21:48;1001.1327850142648;;;6.107163051713808;37.082363618905454
46382;BME280;66809;52.974;-2.514;2023-04-22T01:23:47;1001.117168876469;;;6.071156316634945;37.05002852738982
46382;BME280;66809;52.974;-2.514;2023-04-22T01:25:47;1001.1000410904921;;;6.034469057419975;37.03567149184209
46382;BME280;66809;52.974;-2.514;2023-04-22T01:27:47;1001.0827951004002;;;5.998453938672748;37.05028721470747
46382;BME280;66809;52.974;-2.514;2023-04-22T01:29:46;1001.064839780949;;;5.959710129153172;37.076562656231935
46382;BME280;66809;52.974;-2.514;2023-04-22T01:31:46;1001.0463028398092;;;5.9295743719620235;37.089148317741476
46382;BME280;66809;52.974;-2.514;2023-04-22T01:33:47;1001.0264906571982;;;5.887923637759424;37.09755472637646
46382;BME280;66809;52.974;-2.514;2023-04-22T01:35:47;1001.0074683378132;;;5.846960031904448;37.11121101738833
46382;BME280;66809;52.974;-2.514;2023-04-22T01:37:46;1000.9874052651356;;;5.80829666871134;37.12848217978056
46382;BME280;66809;52.974;-2.514;2023-04-22T01:39:46;1000.964887818392;;;5.766190475780459;37.15573374417995
46382;BME280;66809;52.974;-2.514;2023-04-22T01:41:47;1000.9427391313967;;;5.73385358009721;37.20315398306757
46382;BME280;66809;52.974;-2.514;2023-04-22T01:43:47;1000.9202768694729;;;5.709279833045072;37.2419915848047
46382;BME280;66809;52.974;-2.514;2023-04-22T01:45:46;1000.8970653599094;;;5.694292388371782;37.27873344072089
46382;BME280;66809;52.974;-2.514;2023-04-22T01:47:46;1000.874851505752;;;5.689958238197554;37.325137069345836
46382;BME280;66809;52.974;-2.514;2023-04-22T01:49:47;1000.8532554842834;;;5.676129135601843;37.3776202603705
46382;BME280;66809;52.974;-2.514;2023-04-22T01:51:47;1000.8346108263911;;;5.672264379189161;37.43114308352016
46382;BME280;66809;52.974;-2.514;2023-04-22T01:53:47;1000.8170127534031;;;5.676439998432599;37.46687114064718
46382;BME280;66809;52.974;-2.514;2023-04-22T01:55:46;1000.7991259261231;;;5.681575237908965;37.483058437541374
46382;BME280;66809;52.974;-2.514;2023-04-22T01:57:48;1000.7813207893403;;;5.696303333825909;37.48660388030961
46382;BME280;66809;52.974;-2.514;2023-04-22T01:59:47;1000.7623800325462;;;5.707857445045177;37.490727676741
46382;BME280;66809;52.974;-2.514;2023-04-22T02:01:47;1000.742895049935;;;5.725341302341908;37.50436733337532
46382;BME280;66809;52.974;-2.514;2023-04-22T02:03:46;1000.7225018257723;;;5.743043610845007;37.526557695654084
46382;BME280;66809;52.974;-2.514;2023-04-22T02:05:47;1000.7026799466302;;;5.755202663632686;37.56245260647502
46382;BME280;66809;52.974;-2.514;2023-04-22T02:07:50;1000.683123281488;;;5.76385166597242;37.60563327319858
46382;BME280;66809;52.974;-2.514;2023-04-22T02:09:46;1000.6642238241442;;;5.784897854002086;37.648123719355915
46382;BME280;66809;52.974;-2.514;2023-04-22T02:11:47;1000.6451168163051;;;5.801108362149493;37.684761721502
46382;BME280;66809;52.974;-2.514;2023-04-22T02:13:46;1000.6254869112762;;;5.824013151916614;37.703608173676
46382;BME280;66809;52.974;-2.514;2023-04-22T02:15:47;1000.6057732633559;;;5.8437103379322775;37.72497563647729
46382;BME280;66809;52.974;-2.514;2023-04-22T02:17:47;1000.5861792276453;;;5.86353354184026;37.7573222777774
46382;BME280;66809;52.974;-2.514;2023-04-22T02:19:46;1000.5670236975491;;;5.88602662837691;37.80191853340045
46382;BME280;66809;52.974;-2.514;2023-04-22T02:21:47;1000.5481240438606;;;5.912014820051711;37.859136613760704
46382;BME280;66809;52.974;-2.514;2023-04-22T02:23:47;1000.530405338696;;;5.934209142041235;37.92614501105523
46382;BME280;66809;52.974;-2.514;2023-04-22T02:25:47;1000.5122829359714;;;5.960495080810831;37.979544067222484
46382;BME280;66809;52.974;-2.514;2023-04-22T02:27:46;1000.4949179628204;;;5.988343734391664;38.01797968100015
46382;BME280;66809;52.974;-2.514;2023-04-22T02:29:47;1000.4790880500267;;;6.017208996174152;38.04562387107144
46382;BME280;66809;52.974;-2.514;2023-04-22T02:31:46;1000.4634447186211;;;6.049334093436111;38.08276352375244
46382;BME280;66809;52.974;-2.514;2023-04-22T02:33:46;1000.448067758294;;;6.086458170789731;38.12173340513288
46382;BME280;66809;52.974;-2.514;2023-04-22T02:35:47;1000.4309407335372;;;6.125306411160798;38.155541126520106
46382;BME280;66809;52.974;-2.514;2023-04-22T02:37:46;1000.4130954388709;;;6.169573717047722;38.1952580217088
46382;BME280;66809;52.974;-2.514;2023-04-22T02:39:47;1000.3962127860286;;;6.217344532386878;38.22701976414118
46382;BME280;66809;52.974;-2.514;2023-04-22T02:41:46;1000.3777514452644;;;6.276092683339496;38.24286915384194
46382;BME280;66809;52.974;-2.514;2023-04-22T02:43:46;1000.3603515441608;;;6.319762395381644;38.26386177854458
46382;BME280;66809;52.974;-2.514;2023-04-22T02:45:47;1000.34402269533;;;6.372690075050229;38.274950006321504
46382;BME280;66809;52.974;-2.514;2023-04-22T02:47:46;1000.3272600577312;;;6.417738856606543;38.275953109147096
46382;BME280;66809;52.974;-2.514;2023-04-22T02:49:47;1000.3108453328626;;;6.46394526205969;38.266767604602
46382;BME280;66809;52.974;-2.514;2023-04-22T02:51:46;1000.2919213221682;;;6.508494724818012;38.25915324227738
46382;BME280;66809;52.974;-2.514;2023-04-22T02:53:46;1000.2711577264961;;;6.547205043891912;38.26991950789914
46382;BME280;66809;52.974;-2.514;2023-04-22T02:55:47;1000.2491274318969;;;6.577372716825083;38.2931372101328
46382;BME280;66809;52.974;-2.514;2023-04-22T02:57:46;1000.2254512283386;;;6.600837713360894;38.32559935583118
46382;BME280;66809;52.974;-2.514;2023-04-22T02:59:47;1000.200681986382;;;6.632675507716661;38.357193371251306
46382;BME280;66809;52.974;-2.514;2023-04-22T03:01:46;1000.1754902507074;;;6.661169438142249;38.38578427164662
46382;BME280;66809;52.974;-2.514;2023-04-22T03:03:46;1000.1484374972957;;;6.682935473494234;38.414776024071216
46382;BME280;66809;52.974;-2.514;2023-04-22T03:05:47;1000.1201997386358;;;6.7104212181093486;38.43599068461524
46382;BME280;66809;52.974;-2.514;2023-04-22T03:07:46;1000.0916673203578;;;6.730840011929723;38.44621430292353
46382;BME280;66809;52.974;-2.514;2023-04-22T03:09:47;1000.0634038190868;;;6.749032361036393;38.457898348228845
46382;BME280;66809;52.974;-2.514;2023-04-22T03:11:46;1000.0356282847538;;;6.772266868144977;38.47658431761388
46382;BME280;66809;52.974;-2.514;2023-04-22T03:13:46;1000.0056865733598;;;6.7909915208213825;38.5090834256126
46382;BME280;66809;52.974;-2.514;2023-04-22T03:15:47;999.9753507356261;;;6.808906619031851;38.53798297197116
46382;BME280;66809;52.974;-2.514;2023-04-22T03:17:46;999.9450157658501;;;6.831659229086258;38.55656997538445
46382;BME280;66809;52.974;-2.514;2023-04-22T03:19:47;999.9148247307713;;;6.852106211965017;38.57136682149243
46382;BME280;66809;52.974;-2.514;2023-04-22T03:21:46;999.8844119932922;;;6.873433519222521;38.582578202441006
46382;BME280;66809;52.974;-2.514;2023-04-22T03:23:47;999.8537894946443;;;6.901890158778687;38.59175274147336
46382;BME280;66809;52.974;-2.514;2023-04-22T03:25:46;999.8232097757246;;;6.921535265792925;38.59821252725058
46382;BME280;66809;52.974;-2.514;2023-04-22T03:27:46;999.791339468909;;;6.926293272851891;38.60458246023995
46382;BME280;66809;52.974;-2.514;2023-04-22T03:29:47;999.7580509405149;;;6.945153264705687;38.62030435809229
46382;BME280;66809;52.974;-2.514;2023-04-22T03:31:46;999.7243692312986;;;6.950296984921943;38.64430447426975
46382;BME280;66809;52.974;-2.514;2023-04-22T03:33:47;999.6893821764614;;;6.952130427960229;38.668313195609684
46382;BME280;66809;52.974;-2.514;2023-04-22T03:35:47;999.652179962714;;;6.961983774299399;38.69203491676229
46382;BME280;66809;52.974;-2.514;2023-04-22T03:37:46;999.6134988652884;;;6.971265805527555;38.71254974702743
46382;BME280;66809;52.974;-2.514;2023-04-22T03:39:46;999.5747143558918;;;6.984074689922679;38.73112362555206
46382;BME280;66809;52.974;-2.514;2023-04-22T03:41:47;999.5368824063747;;;6.984612400563672;38.749996648014104
46382;BME280;66809;52.974;-2.514;2023-04-22T03:43:46;999.4993396334619;;;6.989662949463111;38.76838669370314
46382;BME280;66809;52.974;-2.514;2023-04-22T03:45:47;999.4610003375793;;;6.983413938060667;38.78843343902903
46382;BME280;66809;52.974;-2.514;2023-04-22T03:47:47;999.4227527710058;;;6.984546294816584;38.80546884680167
46382;BME280;66809;52.974;-2.514;2023-04-22T03:49:46;999.3847066045711;;;6.977581260085498;38.823290900591914
46382;BME280;66809;52.974;-2.514;2023-04-22T03:51:47;999.3461025220556;;;6.962686871069123;38.840826580886535
46382;BME280;66809;52.974;-2.514;2023-04-22T03:53:46;999.3096820589376;;;6.949193700267097;38.85155631912084
46382;BME280;66809;52.974;-2.514;2023-04-22T03:55:46;999.2756567461159;;;6.942754234497144;38.86296838587936
46382;BME280;66809;52.974;-2.514;2023-04-22T03:57:47;999.2430043711994;;;6.929175175514989;38.8724364638533
46382;BME280;66809;52.974;-2.514;2023-04-22T03:59:47;999.2097765396818;;;6.907817991082051;38.87656250184292
46382;BME280;66809;52.974;-2.514;2023-04-22T04:01:46;999.176183536203;;;6.884141935102632;38.8789437613343
46382;BME280;66809;52.974;-2.514;2023-04-22T04:03:46;999.1455729405978;;;6.860732873566371;38.875787510490476
46382;BME280;66809;52.974;-2.514;2023-04-22T04:05:47;999.1179647866387;;;6.8397733877590055;38.8745889124801
46382;BME280;66809;52.974;-2.514;2023-04-22T04:07:46;999.0929227145571;;;6.805266827828286;38.891978201315695
46382;BME280;66809;52.974;-2.514;2023-04-22T04:09:47;999.0683131690115;;;6.776291445986443;38.921134358159485
46382;BME280;66809;52.974;-2.514;2023-04-22T04:11:46;999.0443503212589;;;6.732092927581042;38.95185020108772
46382;BME280;66809;52.974;-2.514;2023-04-22T04:13:46;999.0203749518439;;;6.680813651056227;38.984781110430234
46382;BME280;66809;52.974;-2.514;2023-04-22T04:15:47;998.9948493200158;;;6.644285178574062;39.023829374959874
46382;BME280;66809;52.974;-2.514;2023-04-22T04:17:46;998.9673750953715;;;6.601408731903617;39.072690777951195
46382;BME280;66809;52.974;-2.514;2023-04-22T04:19:47;998.9387898636854;;;6.565920921074157;39.11299705584065
46382;BME280;66809;52.974;-2.514;2023-04-22T04:21:47;998.9104931370304;;;6.531248070300731;39.141554850129424
46382;BME280;66809;52.974;-2.514;2023-04-22T04:23:46;998.8819462521782;;;6.490200186418172;39.16225488278
46382;BME280;66809;52.974;-2.514;2023-04-22T04:25:46;998.8531511198803;;;6.453368116515406;39.19353997697586
46382;BME280;66809;52.974;-2.514;2023-04-22T04:27:47;998.8252764200641;;;6.4233341808632405;39.23045856892125
46382;BME280;66809;52.974;-2.514;2023-04-22T04:29:46;998.7975278800653;;;6.385848698964208;39.269592865186226
46382;BME280;66809;52.974;-2.514;2023-04-22T04:31:46;998.7704525473216;;;6.356771474137759;39.3044374505221
46382;BME280;66809;52.974;-2.514;2023-04-22T04:33:47;998.7441603614506;;;6.33116414677349;39.34121091766924
46382;BME280;66809;52.974;-2.514;2023-04-22T04:35:46;998.7204000386934;;;6.302408027982226;39.361379992223654
46382;BME280;66809;52.974;-2.514;2023-04-22T04:37:47;998.6991595169798;;;6.271276059203858;39.36445941709703
46382;BME280;66809;52.974;-2.514;2023-04-22T04:39:46;998.6779963225266;;;6.231542615691737;39.361326212657396
46382;BME280;66809;52.974;-2.514;2023-04-22T04:41:46;998.6575282934593;;;6.185659161442058;39.360045203993415
46382;BME280;66809;52.974;-2.514;2023-04-22T04:43:47;998.6363615585486;;;6.155902545550182;39.365079333834494
46382;BME280;66809;52.974;-2.514;2023-04-22T04:45:46;998.6159345193067;;;6.118793326056755;39.37972781046338
46382;BME280;66809;52.974;-2.514;2023-04-22T04:47:47;998.5963511961431;;;6.083366275104814;39.39224114196159
46382;BME280;66809;52.974;-2.514;2023-04-22T04:49:47;998.5775732490586;;;6.060733121917685;39.39319265610495
46382;BME280;66809;52.974;-2.514;2023-04-22T04:51:46;998.5597713762413;;;6.036582960314286;39.38878572437424
46382;BME280;66809;52.974;-2.514;2023-04-22T04:53:47;998.5405980419785;;;6.01503077163299;39.37727373068981
46382;BME280;66809;52.974;-2.514;2023-04-22T04:55:47;998.5196215936132;;;5.996202577718764;39.36156403573689
46382;BME280;66809;52.974;-2.514;2023-04-22T04:57:46;998.4980552634074;;;5.977493858578058;39.341663561726065
46382;BME280;66809;52.974;-2.514;2023-04-22T04:59:47;998.4785043369403;;;5.9864258345059715;39.320298406739084
46382;BME280;66809;52.974;-2.514;2023-04-22T05:01:46;998.4610863210114;;;5.9744354813417475;39.298439042968575
46382;BME280;66809;52.974;-2.514;2023-04-22T05:03:46;998.4444625927009;;;5.968220083448128;39.2678201614253
46382;BME280;66809;52.974;-2.514;2023-04-22T05:05:47;998.4264253598983;;;5.956967378052468;39.228444836133015
46382;BME280;66809;52.974;-2.514;2023-04-22T05:07:46;998.4066525578463;;;5.963094048422821;39.18634366524686
46382;BME280;66809;52.974;-2.514;2023-04-22T05:09:47;998.3876409592524;;;5.972868878382012;39.13840995940268
46382;BME280;66809;52.974;-2.514;2023-04-22T05:11:47;998.3689500766471;;;5.981965008214195;39.08668218479623
46382;BME280;66809;52.974;-2.514;2023-04-22T05:13:46;998.3517077788462;;;6.00213924777977;39.030983200334006
46382;BME280;66809;52.974;-2.514;2023-04-22T05:15:47;998.3363744899012;;;6.019727615763082;38.97606575739391
46382;BME280;66809;52.974;-2.514;2023-04-22T05:17:46;998.3217200734034;;;6.043296146245562;38.914731958198914
46382;BME280;66809;52.974;-2.514;2023-04-22T05:19:46;998.3071108062042;;;6.057105635923932;38.84482566583595
46382;BME280;66809;52.974;-2.514;2023-04-22T05:21:47;998.2938130608724;;;6.066027200235652;38.777425939954334
46382;BME280;66809;52.974;-2.514;2023-04-22T05:23:46;998.2813469269825;;;6.079282178803399;38.717891157456286
46382;BME280;66809;52.974;-2.514;2023-04-22T05:25:47;998.271194651312;;;6.089556401293407;38.65837065275521
46382;BME280;66809;52.974;-2.514;2023-04-22T05:27:47;998.261659468872;;;6.109221853008195;38.60672117337936
46382;BME280;66809;52.974;-2.514;2023-04-22T05:29:46;998.2526796116368;;;6.132600846186255;38.54077691448163
46382;BME280;66809;52.974;-2.514;2023-04-22T05:31:47;998.2438665001387;;;6.152646223814942;38.4618913101231
46382;BME280;66809;52.974;-2.514;2023-04-22T05:33:46;998.2360756133914;;;6.171557382836811;38.3843789377192
46382;BME280;66809;52.974;-2.514;2023-04-22T05:35:46;998.2295109870381;;;6.189779616470328;38.31899237481873
46382;BME280;66809;52.974;-2.514;2023-04-22T05:37:46;998.2242023884551;;;6.207680748134066;38.26603298676789
46382;BME280;66809;52.974;-2.514;2023-04-22T05:39:47;998.2192046431156;;;6.231925158348948;38.220440889774046
46382;BME280;66809;52.974;-2.514;2023-04-22T05:41:46;998.2145804546766;;;6.265150958774613;38.170454627167466
46382;BME280;66809;52.974;-2.514;2023-04-22T05:43:46;998.2114183400892;;;6.294159820670879;38.109860139583134
46382;BME280;66809;52.974;-2.514;2023-04-22T05:45:47;998.2094146690125;;;6.333377875195277;38.037107539428995
46382;BME280;66809;52.974;-2.514;2023-04-22T05:47:46;998.2077977353058;;;6.364798070859219;37.96812783230685
46382;BME280;66809;52.974;-2.514;2023-04-22T05:49:47;998.2059796927404;;;6.386869078894902;37.906609209818576
46382;BME280;66809;52.974;-2.514;2023-04-22T05:51:46;998.2046416798827;;;6.405576458707086;37.8476088257248
46382;BME280;66809;52.974;-2.514;2023-04-22T05:53:46;998.2038176792513;;;6.434078747684114;37.78590670448933
46382;BME280;66809;52.974;-2.514;2023-04-22T05:55:47;998.204669020396;;;6.447599677802052;37.73650308488852
46382;BME280;66809;52.974;-2.514;2023-04-22T05:57:46;998.2069573889586;;;6.475342116600744;37.67988926456429
46382;BME280;66809;52.974;-2.514;2023-04-22T05:59:47;998.2097087830978;;;6.4819113134793565;37.636508263291596
46382;BME280;66809;52.974;-2.514;2023-04-22T06:01:47;998.2099314109172;;;6.509460538719115;37.59710178674872
46382;BME280;66809;52.974;-2.514;2023-04-22T06:03:46;998.2086633501629;;;6.539185819169098;37.56915772591096
46382;BME280;66809;52.974;-2.514;2023-04-22T06:05:47;998.2069888339536;;;6.573280002304471;37.54537059046506
46382;BME280;66809;52.974;-2.514;2023-04-22T06:07:46;998.2051032605306;;;6.61120537680909;37.5112559486153
46382;BME280;66809;52.974;-2.514;2023-04-22T06:09:46;998.2026229445995;;;6.642572762667066;37.47723102645417
46382;BME280;66809;52.974;-2.514;2023-04-22T06:11:47;998.1999009455104;;;6.6705249685311765;37.44084600841686
46382;BME280;66809;52.974;-2.514;2023-04-22T06:13:47;998.1957329890431;;;6.692045208072066;37.39490900358191
46382;BME280;66809;52.974;-2.514;2023-04-22T06:15:46;998.190919020103;;;6.730626741716505;37.34361371791531
46382;BME280;66809;52.974;-2.514;2023-04-22T06:17:47;998.1864659065758;;;6.77550231829368;37.29386345293606
46382;BME280;66809;52.974;-2.514;2023-04-22T06:19:47;998.1846631219264;;;6.802643426635134;37.25751140901368
46382;BME280;66809;52.974;-2.514;2023-04-22T06:21:46;998.1823628060262;;;6.8404025027025215;37.2330015107703
46382;BME280;66809;52.974;-2.514;2023-04-22T06:23:47;998.1807615486014;;;6.88544593530763;37.204452535176394
46382;BME280;66809;52.974;-2.514;2023-04-22T06:25:46;998.1775075181631;;;6.934950732349713;37.168785870344735
46382;BME280;66809;52.974;-2.514;2023-04-22T06:27:47;998.1741926087263;;;6.981917174987107;37.123275305293014
46382;BME280;66809;52.974;-2.514;2023-04-22T06:29:46;998.1696499908422;;;7.0285327117938925;37.08336206809317
46382;BME280;66809;52.974;-2.514;2023-04-22T06:31:46;998.1638224035062;;;7.090968038625608;37.0489326305253
46382;BME280;66809;52.974;-2.514;2023-04-22T06:33:47;998.1564202757843;;;7.152209288629988;37.00063193585015
46382;BME280;66809;52.974;-2.514;2023-04-22T06:35:46;998.1476859223686;;;7.202236962820224;36.960797988304506
46382;BME280;66809;52.974;-2.514;2023-04-22T06:37:46;998.137155308516;;;7.271206935209414;36.92763465310016
46382;BME280;66809;52.974;-2.514;2023-04-22T06:39:46;998.1271513196735;;;7.34510051187344;36.888194640425645
46382;BME280;66809;52.974;-2.514;2023-04-22T06:41:47;998.1175146121212;;;7.4286489503513895;36.84343277616508
46382;BME280;66809;52.974;-2.514;2023-04-22T06:43:46;998.1072059317141;;;7.5061826920780295;36.79812101180969
46382;BME280;66809;52.974;-2.514;2023-04-22T06:45:47;998.0962651041311;;;7.593032258980868;36.753333224523665
46382;BME280;66809;52.974;-2.514;2023-04-22T06:47:46;998.0845848566889;;;7.680004485214903;36.70458482475268
46382;BME280;66809;52.974;-2.514;2023-04-22T06:49:46;998.0737152555841;;;7.775628760888155;36.653421579951136
46382;BME280;66809;52.974;-2.514;2023-04-22T06:51:47;998.0642303595762;;;7.883014798636095;36.59459203381131
46382;BME280;66809;52.974;-2.514;2023-04-22T06:53:46;998.0549669764607;;;7.979858302907556;36.54426110326953
46382;BME280;66809;52.974;-2.514;2023-04-22T06:55:46;998.0458579090616;;;8.082335999030104;36.480428178749655
46382;BME280;66809;52.974;-2.514;2023-04-22T06:57:47;998.0365687516075;;;8.182485502987744;36.42316358153568
46382;BME280;66809;52.974;-2.514;2023-04-22T06:59:47;998.0266653722357;;;8.299124100258592;36.36039698042164
46382;BME280;66809;52.974;-2.514;2023-04-22T07:01:47;998.0163646075287;;;8.414319716204172;36.2947520410472
46382;BME280;66809;52.974;-2.514;2023-04-22T07:03:46;998.0074989537693;;;8.515988396746454;36.22270848399877
46382;BME280;66809;52.974;-2.514;2023-04-22T07:05:47;997.998700019683;;;8.625446787511837;36.152767125187964
46382;BME280;66809;52.974;-2.514;2023-04-22T07:07:47;997.9899701189025;;;8.73164438869373;36.077764505452365
46382;BME280;66809;52.974;-2.514;2023-04-22T07:09:46;997.9819679116962;;;8.83953931271829;35.992941398530135
46382;BME280;66809;52.974;-2.514;2023-04-22T07:11:47;997.9749965526199;;;8.963566030861958;35.906098845942644
46382;BME280;66809;52.974;-2.514;2023-04-22T07:13:47;997.9693933052275;;;9.09135488851148;35.81322372814561
46382;BME280;66809;52.974;-2.514;2023-04-22T07:15:47;997.9640402008797;;;9.197696633229647;35.7237382073294